Dunswell, United Kingdom
Current Conditions -  °F | °C
As of 4:50 AM on Monday 20 Oct 2014 (Local Time) from EGXV Reporting Station
Broken Clouds Broken Clouds  
Wind Chill: 12°   Ceiling: 19000
Heat Index: 12°   Visibility: 6mi
Dew Point: 11°   Wind: 12mph
Humidity: 94%   Direction: 240°WSW
Pressure: 29.83"   Gusts: NA
Location:  53.8°N, 0.37°W
Report Text: EGXV 200350Z AUTO 24010KT 9999 SCT140/// BKN190/// 12/11 Q1010
Loading
Personal Weather Stations






























Interactive Weather Map
Tropical Storm Tracking
New forecast layout! Learn more

10-Day Weather Forecast

Advertisements
Track Severe Weather on mobile